Time;durP1;ratioP1;P1;durP2;ratioP2;P2;SDS_P1;SDS_P2;PMS_P1;PMS_P2;Temp;Humidity;BMP_temperature;BMP_pressure;BME280_temperature;BME280_humidity;BME280_pressure;Samples;Min_cycle;Max_cycle;Signal;HPM_P1;HPM_P2
2024/04/19 00:00:55;;;;;;;11.05;3.42;;;10.20;82.70;;;;;;2236550;26;20022;-70
2024/04/19 00:01:56;;;;;;;5.35;2.60;;;10.20;82.80;;;;;;2237923;26;20010;-69
2024/04/19 00:02:56;;;;;;;6.40;2.40;;;10.20;82.80;;;;;;2221731;26;20000;-69
2024/04/19 00:03:57;;;;;;;5.65;2.70;;;10.20;82.80;;;;;;2219123;26;20000;-70
2024/04/19 00:04:57;;;;;;;6.15;2.58;;;10.20;82.80;;;;;;2235262;26;20088;-70
2024/04/19 00:05:58;;;;;;;6.35;2.72;;;10.20;82.80;;;;;;2236590;26;20004;-70
2024/04/19 00:06:59;;;;;;;5.30;2.55;;;10.20;82.80;;;;;;2235669;26;19995;-70
2024/04/19 00:07:59;;;;;;;5.03;2.10;;;10.20;82.80;;;;;;2234945;26;19995;-70
2024/04/19 00:09:00;;;;;;;6.88;2.42;;;10.20;82.70;;;;;;2237411;26;20019;-70
2024/04/19 00:10:00;;;;;;;5.15;2.55;;;10.20;82.70;;;;;;2235852;26;20007;-70
2024/04/19 00:11:01;;;;;;;7.22;2.58;;;10.20;82.80;;;;;;2235801;26;20000;-71
2024/04/19 00:12:02;;;;;;;5.50;2.78;;;10.10;82.70;;;;;;2237166;26;20003;-70
2024/04/19 00:13:03;;;;;;;5.68;2.30;;;10.10;82.70;;;;;;2236819;26;20448;-71
2024/04/19 00:14:03;;;;;;;2.97;2.13;;;10.10;82.60;;;;;;2236923;26;20014;-72
2024/04/19 00:15:05;;;;;;;7.07;2.40;;;10.10;82.60;;;;;;2237619;26;20012;-70
2024/04/19 00:16:06;;;;;;;4.55;2.55;;;10.10;82.60;;;;;;2235843;26;20012;-69
2024/04/19 00:17:07;;;;;;;3.05;1.80;;;10.10;82.60;;;;;;2238002;26;20000;-71
2024/04/19 00:18:08;;;;;;;4.22;2.33;;;10.10;82.70;;;;;;2235033;26;19996;-71
2024/04/19 00:19:08;;;;;;;5.72;2.08;;;10.10;82.90;;;;;;2231455;26;20065;-71
2024/04/19 00:20:09;;;;;;;7.15;2.53;;;10.10;83.00;;;;;;2237516;26;20738;-69
2024/04/19 00:21:09;;;;;;;3.65;1.83;;;10.10;83.10;;;;;;2234415;26;20037;-69
2024/04/19 00:22:10;;;;;;;6.35;2.65;;;10.10;83.30;;;;;;2231626;26;20090;-70
2024/04/19 00:23:10;;;;;;;3.95;2.08;;;10.10;83.50;;;;;;2237210;26;20011;-70
2024/04/19 00:24:11;;;;;;;4.55;2.05;;;10.10;84.00;;;;;;2236449;26;19999;-69
2024/04/19 00:25:12;;;;;;;5.45;2.10;;;10.10;84.10;;;;;;2236373;26;20022;-70
2024/04/19 00:26:12;;;;;;;4.43;2.08;;;10.10;84.50;;;;;;2237320;26;19995;-70
2024/04/19 00:27:13;;;;;;;5.55;1.70;;;10.10;84.80;;;;;;2249223;26;19994;-71
2024/04/19 00:28:13;;;;;;;3.75;1.90;;;10.10;85.00;;;;;;2250603;26;20014;-71
2024/04/19 00:29:14;;;;;;;4.25;1.83;;;10.10;85.30;;;;;;2236639;26;20007;-70
2024/04/19 00:30:14;;;;;;;3.83;2.05;;;10.10;85.70;;;;;;2236610;26;19996;-70
2024/04/19 00:31:16;;;;;;;3.08;2.22;;;10.10;85.90;;;;;;2233925;26;20043;-70
2024/04/19 00:32:16;;;;;;;4.45;2.25;;;10.10;86.20;;;;;;2232693;26;20007;-70
2024/04/19 00:33:17;;;;;;;4.68;2.10;;;10.10;86.50;;;;;;2234108;26;20080;-70
2024/04/19 00:34:18;;;;;;;6.18;2.20;;;10.10;86.70;;;;;;2238196;26;20437;-70
2024/04/19 00:35:22;;;;;;;6.25;2.22;;;10.10;87.80;;;;;;2236159;26;20440;-70
2024/04/19 00:36:22;;;;;;;4.10;1.85;;;10.00;87.40;;;;;;2220730;26;20051;-70
2024/04/19 00:37:23;;;;;;;7.68;2.10;;;10.00;87.90;;;;;;2222046;26;20034;-69
2024/04/19 00:38:23;;;;;;;4.13;2.05;;;10.00;88.10;;;;;;2236020;26;20006;-70
2024/04/19 00:39:24;;;;;;;4.32;2.28;;;10.00;88.40;;;;;;2238894;26;20048;-71
2024/04/19 00:40:24;;;;;;;5.40;1.85;;;9.90;88.70;;;;;;2237220;26;20454;-70
2024/04/19 00:41:25;;;;;;;4.93;2.15;;;9.90;89.00;;;;;;2235613;26;21016;-70
2024/04/19 00:42:26;;;;;;;6.28;2.17;;;10.00;89.30;;;;;;2238405;26;20011;-70
2024/04/19 00:43:27;;;;;;;4.70;1.92;;;10.00;89.60;;;;;;2236279;26;20386;-70
2024/04/19 00:44:30;;;;;;;5.25;2.10;;;10.00;89.80;;;;;;2238764;26;20337;-70
2024/04/19 00:45:38;;;;;;;4.30;2.17;;;9.90;90.00;;;;;;2237152;26;20007;-69
2024/04/19 00:46:39;;;;;;;3.63;1.80;;;9.90;90.10;;;;;;2232603;26;20463;-70
2024/04/19 00:47:40;;;;;;;5.47;2.38;;;10.00;90.20;;;;;;2230499;26;20402;-70
2024/04/19 00:48:40;;;;;;;5.55;2.40;;;9.90;90.30;;;;;;2236849;26;20007;-70
2024/04/19 00:49:43;;;;;;;4.80;2.22;;;9.90;90.30;;;;;;2235721;26;20049;-70
2024/04/19 00:50:45;;;;;;;6.40;2.50;;;9.90;90.40;;;;;;2238072;26;19999;-70
2024/04/19 00:51:45;;;;;;;6.95;2.60;;;9.90;90.50;;;;;;2237423;26;20529;-70
2024/04/19 00:52:46;;;;;;;6.63;2.75;;;9.90;90.60;;;;;;2236747;26;20003;-70
2024/04/19 00:53:46;;;;;;;6.90;3.05;;;9.90;90.60;;;;;;2232783;26;20008;-70
2024/04/19 00:54:48;;;;;;;6.72;2.60;;;9.80;90.80;;;;;;2235841;26;20451;-70
2024/04/19 00:55:49;;;;;;;3.55;2.35;;;9.80;90.80;;;;;;2234118;26;19999;-71
2024/04/19 00:56:50;;;;;;;4.30;2.20;;;9.80;90.90;;;;;;2235906;26;20444;-70
2024/04/19 00:57:55;;;;;;;6.65;2.58;;;9.80;91.00;;;;;;2235852;26;19995;-70
2024/04/19 00:58:56;;;;;;;4.85;2.65;;;9.80;91.10;;;;;;2237033;26;20043;-70
2024/04/19 00:59:56;;;;;;;3.95;2.22;;;9.80;91.20;;;;;;2234088;26;19999;-70
2024/04/19 01:01:04;;;;;;;7.18;2.28;;;9.80;91.30;;;;;;2236334;26;20044;-71
2024/04/19 01:02:05;;;;;;;6.95;2.30;;;9.80;91.60;;;;;;2236215;26;19999;-70
2024/04/19 01:03:06;;;;;;;5.25;2.40;;;9.80;91.50;;;;;;2235421;26;20003;-70
2024/04/19 01:04:07;;;;;;;4.53;2.55;;;9.80;91.70;;;;;;2237582;26;20013;-70
2024/04/19 01:05:08;;;;;;;6.10;2.08;;;9.70;91.80;;;;;;2251961;26;20003;-70
2024/04/19 01:06:08;;;;;;;6.88;2.53;;;9.70;91.90;;;;;;2246940;26;19998;-71
2024/04/19 01:07:09;;;;;;;6.32;2.38;;;9.70;92.00;;;;;;2236465;26;20085;-71
2024/04/19 01:08:10;;;;;;;5.78;2.33;;;9.70;92.20;;;;;;2234880;26;19995;-71
2024/04/19 01:09:11;;;;;;;5.00;2.22;;;9.70;92.40;;;;;;2237192;26;19999;-71
2024/04/19 01:10:11;;;;;;;4.38;2.30;;;9.70;92.60;;;;;;2237159;26;20000;-71
2024/04/19 01:11:12;;;;;;;3.28;2.13;;;9.70;92.80;;;;;;2234634;26;20344;-71
2024/04/19 01:12:12;;;;;;;5.13;2.60;;;9.60;92.90;;;;;;2233003;26;20007;-70
2024/04/19 01:13:13;;;;;;;8.70;3.35;;;9.70;93.10;;;;;;2234952;26;20018;-70
2024/04/19 01:14:14;;;;;;;5.95;2.55;;;9.70;93.20;;;;;;2250450;26;19995;-71
2024/04/19 01:15:20;;;;;;;4.75;2.42;;;9.60;93.40;;;;;;2235348;26;20436;-71
2024/04/19 01:16:21;;;;;;;5.95;2.10;;;9.60;93.70;;;;;;2235162;26;20000;-70
2024/04/19 01:17:21;;;;;;;4.85;2.30;;;9.60;93.80;;;;;;2230035;26;19997;-70
2024/04/19 01:18:22;;;;;;;6.63;2.83;;;9.60;93.90;;;;;;2236871;26;20031;-70
2024/04/19 01:19:22;;;;;;;7.80;2.65;;;9.60;94.00;;;;;;2231425;26;20395;-70
2024/04/19 01:20:23;;;;;;;5.55;2.58;;;9.60;94.20;;;;;;2230932;26;20004;-70
2024/04/19 01:21:25;;;;;;;4.72;2.50;;;9.60;94.40;;;;;;2237893;26;20000;-71
2024/04/19 01:22:25;;;;;;;4.80;2.58;;;9.60;94.60;;;;;;2235842;26;22949;-70
2024/04/19 01:23:27;;;;;;;5.90;3.25;;;9.60;94.80;;;;;;2236505;26;20080;-71
2024/04/19 01:24:44;;;;;;;5.47;2.75;;;9.60;95.00;;;;;;2238129;26;20007;-72
2024/04/19 01:25:46;;;;;;;7.95;2.75;;;9.60;95.40;;;;;;2237722;26;20329;-70
2024/04/19 01:26:47;;;;;;;5.45;2.72;;;9.50;95.40;;;;;;2235499;26;20011;-71
2024/04/19 01:27:47;;;;;;;5.82;2.90;;;9.50;95.50;;;;;;2236102;26;20000;-71
2024/04/19 01:28:48;;;;;;;5.47;3.30;;;9.50;95.70;;;;;;2232414;26;20018;-71
2024/04/19 01:29:49;;;;;;;6.38;3.05;;;9.50;95.90;;;;;;2234507;26;19995;-71
2024/04/19 01:30:49;;;;;;;4.35;3.05;;;9.50;96.20;;;;;;2234046;26;20104;-71
2024/04/19 01:31:50;;;;;;;4.32;2.70;;;9.50;96.30;;;;;;2236993;26;20003;-71
2024/04/19 01:32:50;;;;;;;4.53;2.78;;;9.40;96.50;;;;;;2233003;26;20007;-72
2024/04/19 01:33:51;;;;;;;6.82;3.00;;;9.50;96.70;;;;;;2235164;26;20007;-71
2024/04/19 01:34:51;;;;;;;3.65;2.80;;;9.40;96.90;;;;;;2236642;26;20007;-72
2024/04/19 01:35:52;;;;;;;6.93;3.33;;;9.40;97.20;;;;;;2234693;26;20000;-71
2024/04/19 01:36:52;;;;;;;5.28;3.08;;;9.40;97.30;;;;;;2235598;26;20031;-71
2024/04/19 01:37:53;;;;;;;6.28;2.75;;;9.40;97.40;;;;;;2236069;26;20344;-71
2024/04/19 01:38:56;;;;;;;5.13;3.00;;;9.40;97.60;;;;;;2235555;26;20347;-71
2024/04/19 01:39:56;;;;;;;7.57;2.97;;;9.40;97.90;;;;;;2236937;26;19996;-72
2024/04/19 01:40:56;;;;;;;5.25;2.65;;;9.30;98.00;;;;;;2236420;26;20092;-71
2024/04/19 01:42:00;;;;;;;5.65;2.90;;;9.30;98.20;;;;;;2231658;26;20003;-70
2024/04/19 01:43:01;;;;;;;6.97;2.50;;;9.30;98.30;;;;;;2233337;26;20602;-72
2024/04/19 01:44:01;;;;;;;6.32;2.30;;;9.30;98.60;;;;;;2237149;26;20022;-71
2024/04/19 01:45:02;;;;;;;4.60;2.30;;;9.30;98.80;;;;;;2236620;26;20557;-71
2024/04/19 01:46:03;;;;;;;7.93;2.85;;;9.20;99.00;;;;;;2234886;26;20015;-70
2024/04/19 01:47:03;;;;;;;3.42;2.47;;;9.20;99.10;;;;;;2236703;26;19995;-70
2024/04/19 01:48:04;;;;;;;4.30;2.50;;;9.20;99.40;;;;;;2236196;26;20007;-70
2024/04/19 01:49:05;;;;;;;6.20;2.38;;;9.20;99.70;;;;;;2237246;26;20410;-70
2024/04/19 01:50:07;;;;;;;3.92;2.20;;;9.20;99.70;;;;;;2236487;26;19995;-71
2024/04/19 01:51:07;;;;;;;5.82;2.63;;;9.20;99.90;;;;;;2232990;26;20007;-70
2024/04/19 01:52:08;;;;;;;5.22;2.63;;;9.20;99.90;;;;;;2232756;26;20010;-70
2024/04/19 01:53:08;;;;;;;4.90;3.13;;;9.20;99.90;;;;;;2237331;26;20069;-71
2024/04/19 01:54:09;;;;;;;4.72;2.38;;;9.20;99.90;;;;;;2234738;26;20003;-70
2024/04/19 01:55:09;;;;;;;6.80;2.88;;;9.20;99.90;;;;;;2236981;26;20008;-70
2024/04/19 01:56:10;;;;;;;5.60;2.35;;;9.20;99.90;;;;;;2237142;26;20004;-71
2024/04/19 01:57:10;;;;;;;3.63;2.88;;;9.10;99.90;;;;;;2235171;26;20011;-70
2024/04/19 01:58:11;;;;;;;5.80;2.85;;;9.10;99.90;;;;;;2236268;26;20047;-71
2024/04/19 01:59:12;;;;;;;4.07;2.72;;;9.10;99.90;;;;;;2250583;26;19999;-71
2024/04/19 02:00:13;;;;;;;3.38;2.55;;;9.10;99.90;;;;;;2249783;26;20348;-71
2024/04/19 02:01:17;;;;;;;8.23;2.67;;;9.10;99.90;;;;;;2237068;26;19999;-70
2024/04/19 02:02:18;;;;;;;5.30;2.70;;;9.10;99.90;;;;;;2237668;26;20084;-70
2024/04/19 02:03:18;;;;;;;5.00;3.45;;;9.10;99.90;;;;;;2234368;26;20011;-72
2024/04/19 02:04:19;;;;;;;5.25;2.88;;;9.10;99.90;;;;;;2234564;26;20004;-71
2024/04/19 02:05:22;;;;;;;6.15;2.63;;;9.10;99.90;;;;;;2236120;26;20011;-71
2024/04/19 02:06:22;;;;;;;5.68;3.15;;;9.10;99.90;;;;;;2236768;26;20384;-71
2024/04/19 02:07:23;;;;;;;5.18;3.03;;;9.10;99.90;;;;;;2238088;26;20019;-69
2024/04/19 02:08:23;;;;;;;3.80;2.65;;;9.10;99.90;;;;;;2235998;26;20011;-69
2024/04/19 02:09:24;;;;;;;5.53;2.70;;;9.10;99.90;;;;;;2235907;26;19992;-71
2024/04/19 02:10:24;;;;;;;4.88;2.80;;;9.10;99.90;;;;;;2248433;26;20047;-72
2024/04/19 02:11:25;;;;;;;5.68;3.35;;;9.10;99.90;;;;;;2249392;26;20003;-71
2024/04/19 02:12:26;;;;;;;4.03;3.13;;;9.10;99.90;;;;;;2235971;26;20015;-70
2024/04/19 02:13:26;;;;;;;5.30;2.85;;;9.10;99.90;;;;;;2236486;26;20026;-70
2024/04/19 02:14:27;;;;;;;3.33;2.42;;;9.10;99.90;;;;;;2236387;26;20004;-70
2024/04/19 02:15:28;;;;;;;5.93;3.38;;;9.20;99.90;;;;;;2231036;26;20373;-71
2024/04/19 02:16:28;;;;;;;3.60;2.72;;;9.20;99.90;;;;;;2228939;26;20093;-70
2024/04/19 02:17:29;;;;;;;4.90;2.60;;;9.20;99.90;;;;;;2234986;26;20000;-70
2024/04/19 02:18:32;;;;;;;8.38;2.80;;;9.20;99.90;;;;;;2234522;26;21132;-70
2024/04/19 02:19:39;;;;;;;5.00;2.53;;;9.20;99.90;;;;;;2234550;26;20011;-71
2024/04/19 02:20:39;;;;;;;4.47;2.70;;;9.20;99.90;;;;;;2237010;26;20014;-70
2024/04/19 02:21:40;;;;;;;3.60;2.70;;;9.20;99.90;;;;;;2236437;26;20057;-69
2024/04/19 02:22:41;;;;;;;7.32;3.05;;;9.20;99.90;;;;;;2234603;26;19992;-71
2024/04/19 02:23:42;;;;;;;4.10;2.72;;;9.10;99.90;;;;;;2236829;26;20003;-70
2024/04/19 02:24:43;;;;;;;6.53;3.30;;;9.10;99.90;;;;;;2234507;26;19999;-70
2024/04/19 02:25:43;;;;;;;3.60;2.95;;;9.10;99.90;;;;;;2234694;26;19996;-70
2024/04/19 02:26:51;;;;;;;5.93;3.08;;;9.10;99.90;;;;;;2234582;26;20061;-70
2024/04/19 02:31:49;;;;;;;4.70;3.05;;;9.00;99.90;;;;;;2236234;26;20031;-70
2024/04/19 02:32:49;;;;;;;4.25;3.72;;;9.00;99.90;;;;;;2235019;26;20639;-70
2024/04/19 02:33:50;;;;;;;3.45;2.75;;;9.00;99.90;;;;;;2237788;26;20010;-71
2024/04/19 02:34:51;;;;;;;5.75;3.13;;;9.00;99.90;;;;;;2235315;26;19995;-69
2024/04/19 02:35:51;;;;;;;7.07;3.10;;;9.00;99.90;;;;;;2235933;26;20040;-71
2024/04/19 02:36:52;;;;;;;6.28;3.50;;;9.00;99.90;;;;;;2234949;26;20011;-70
2024/04/19 02:37:52;;;;;;;4.55;3.17;;;9.00;99.90;;;;;;2233821;26;20325;-70
2024/04/19 02:38:53;;;;;;;5.32;2.78;;;9.00;99.90;;;;;;2236499;26;20002;-70
2024/04/19 02:39:54;;;;;;;4.90;3.50;;;8.90;99.90;;;;;;2234333;26;20024;-70
2024/04/19 02:40:54;;;;;;;5.13;3.50;;;9.00;99.90;;;;;;2235719;26;20745;-69
2024/04/19 02:41:55;;;;;;;5.53;3.30;;;8.90;99.90;;;;;;2236556;26;20904;-70
2024/04/19 02:42:55;;;;;;;6.32;3.00;;;8.90;99.90;;;;;;2235700;26;20003;-70
2024/04/19 02:43:56;;;;;;;5.43;3.17;;;8.90;99.90;;;;;;2236304;26;20463;-70
2024/04/19 02:44:56;;;;;;;4.57;3.20;;;8.90;99.90;;;;;;2234912;26;20414;-71
2024/04/19 02:46:04;;;;;;;5.75;3.38;;;8.90;99.90;;;;;;2235519;26;20867;-69
2024/04/19 02:47:05;;;;;;;6.80;3.63;;;8.90;99.90;;;;;;2236190;26;19995;-70
2024/04/19 02:48:06;;;;;;;6.68;3.30;;;8.90;99.90;;;;;;2237810;26;19999;-70
2024/04/19 02:49:07;;;;;;;5.07;3.80;;;8.90;99.90;;;;;;2237658;26;19996;-70
2024/04/19 02:50:08;;;;;;;6.47;3.55;;;8.90;99.90;;;;;;2237649;26;20559;-69
2024/04/19 02:51:09;;;;;;;4.82;3.30;;;8.90;99.90;;;;;;2235514;26;20413;-71
2024/04/19 02:52:09;;;;;;;4.50;3.13;;;8.90;99.90;;;;;;2234538;26;20080;-70
2024/04/19 02:53:10;;;;;;;6.00;3.97;;;8.90;99.90;;;;;;2237961;26;19999;-70
2024/04/19 02:54:10;;;;;;;3.83;3.20;;;8.90;99.90;;;;;;2234525;26;19996;-70
2024/04/19 02:55:11;;;;;;;4.75;3.55;;;8.90;99.90;;;;;;2237042;26;20039;-70
2024/04/19 02:56:11;;;;;;;6.18;3.50;;;8.90;99.90;;;;;;2238010;26;20018;-70
2024/04/19 02:57:12;;;;;;;6.03;3.60;;;8.90;99.90;;;;;;2237096;26;20375;-71
2024/04/19 02:58:12;;;;;;;5.63;3.50;;;8.90;99.90;;;;;;2235312;26;20112;-70
2024/04/19 02:59:13;;;;;;;5.03;3.60;;;8.90;99.90;;;;;;2238565;26;20004;-70
2024/04/19 03:00:14;;;;;;;4.78;3.25;;;8.90;99.90;;;;;;2240859;26;19996;-70
2024/04/19 03:01:15;;;;;;;5.25;3.67;;;8.90;99.90;;;;;;2223022;26;20007;-70
2024/04/19 03:02:15;;;;;;;4.03;3.53;;;8.80;99.90;;;;;;2232314;26;20359;-70
2024/04/19 03:03:16;;;;;;;4.88;3.53;;;8.80;99.90;;;;;;2235148;26;20336;-69
2024/04/19 03:04:17;;;;;;;5.25;3.47;;;8.80;99.90;;;;;;2238437;26;19992;-70
2024/04/19 03:05:17;;;;;;;6.88;4.15;;;8.80;99.90;;;;;;2235723;26;20010;-69
2024/04/19 03:06:18;;;;;;;4.50;3.25;;;8.80;99.90;;;;;;2232985;26;19999;-70
2024/04/19 03:07:18;;;;;;;5.30;4.13;;;8.80;99.90;;;;;;2232842;26;20010;-70
2024/04/19 03:08:19;;;;;;;7.00;4.07;;;8.80;99.90;;;;;;2237812;26;20007;-70
2024/04/19 03:09:20;;;;;;;4.10;3.53;;;8.80;99.90;;;;;;2238487;26;19999;-70
2024/04/19 03:10:20;;;;;;;6.38;4.15;;;8.80;99.90;;;;;;2236911;26;20006;-70
2024/04/19 03:11:21;;;;;;;5.20;4.30;;;8.80;99.90;;;;;;2236150;26;20011;-70
2024/04/19 03:12:21;;;;;;;6.47;4.00;;;8.80;99.90;;;;;;2237094;26;20043;-70
2024/04/19 03:13:22;;;;;;;5.97;4.38;;;8.80;99.90;;;;;;2233518;26;20023;-70
2024/04/19 03:14:22;;;;;;;7.03;4.82;;;8.80;99.90;;;;;;2237411;26;20015;-70
2024/04/19 03:15:23;;;;;;;7.28;4.90;;;8.80;99.90;;;;;;2237030;26;20000;-69
2024/04/19 03:16:23;;;;;;;5.43;4.30;;;8.80;99.90;;;;;;2236427;26;20068;-70
2024/04/19 03:17:24;;;;;;;7.78;4.78;;;8.80;99.90;;;;;;2237733;26;20003;-70
2024/04/19 03:18:24;;;;;;;5.15;4.57;;;8.80;99.90;;;;;;2236286;26;19995;-70
2024/04/19 03:19:25;;;;;;;4.90;4.50;;;8.80;99.90;;;;;;2236915;26;20443;-70
2024/04/19 03:20:25;;;;;;;6.00;5.07;;;8.80;99.90;;;;;;2236150;26;20750;-70
2024/04/19 03:21:26;;;;;;;7.90;4.68;;;8.80;99.90;;;;;;2236680;26;20509;-70
2024/04/19 03:22:27;;;;;;;8.32;4.80;;;8.80;99.90;;;;;;2237715;26;20447;-70
2024/04/19 03:23:28;;;;;;;9.40;4.78;;;8.80;99.90;;;;;;2236839;26;19995;-70
2024/04/19 03:24:28;;;;;;;6.30;4.63;;;8.80;99.90;;;;;;2237439;26;19996;-71
2024/04/19 03:25:29;;;;;;;6.35;5.15;;;8.80;99.90;;;;;;2235726;26;20004;-70
2024/04/19 03:26:29;;;;;;;5.63;4.43;;;8.80;99.90;;;;;;2237190;26;20463;-71
2024/04/19 03:27:30;;;;;;;8.27;5.00;;;8.80;99.90;;;;;;2238727;26;20100;-71
2024/04/19 03:28:30;;;;;;;6.60;4.60;;;8.80;99.90;;;;;;2238174;26;20010;-70
2024/04/19 03:29:31;;;;;;;5.03;4.53;;;8.80;99.90;;;;;;2241723;26;20741;-70
2024/04/19 03:30:36;;;;;;;6.60;4.53;;;8.80;99.90;;;;;;2238100;26;20007;-70
2024/04/19 03:31:37;;;;;;;5.22;4.63;;;8.80;99.90;;;;;;2236458;26;20456;-71
2024/04/19 03:32:37;;;;;;;6.25;5.15;;;8.80;99.90;;;;;;2237892;26;20572;-70
2024/04/19 03:33:38;;;;;;;5.22;4.78;;;8.80;99.90;;;;;;2237874;26;19995;-71
2024/04/19 03:34:42;;;;;;;5.70;4.43;;;8.90;99.90;;;;;;2236843;26;20003;-70
2024/04/19 03:35:42;;;;;;;9.38;5.10;;;8.90;99.90;;;;;;2236174;26;19999;-70
2024/04/19 03:36:43;;;;;;;5.80;4.97;;;8.90;99.90;;;;;;2239158;26;20031;-71
2024/04/19 03:37:43;;;;;;;5.97;4.82;;;8.90;99.90;;;;;;2240505;26;21143;-70
2024/04/19 03:38:45;;;;;;;7.75;6.10;;;8.90;99.90;;;;;;2223146;26;20012;-70
2024/04/19 03:39:46;;;;;;;9.40;5.68;;;8.90;99.90;;;;;;2231936;26;20115;-71
2024/04/19 03:40:56;;;;;;;6.25;5.35;;;8.90;99.90;;;;;;2236887;26;20003;-71
2024/04/19 03:41:57;;;;;;;6.22;5.28;;;8.90;99.90;;;;;;2236753;26;20008;-70
2024/04/19 03:42:59;;;;;;;6.55;5.47;;;8.90;99.90;;;;;;2238872;26;20004;-70
2024/04/19 03:45:40;;;;;;;5.90;5.30;;;8.90;99.90;;;;;;2235761;26;20567;-70
2024/04/19 03:46:41;;;;;;;6.32;5.50;;;8.90;99.90;;;;;;2236410;26;20003;-70
2024/04/19 03:47:41;;;;;;;8.25;5.35;;;8.90;99.90;;;;;;2237354;26;20010;-69
2024/04/19 03:48:42;;;;;;;7.38;5.28;;;8.90;99.90;;;;;;2251192;26;20011;-70
2024/04/19 03:49:42;;;;;;;5.18;4.68;;;8.90;99.90;;;;;;2233826;26;20010;-70
2024/04/19 03:50:46;;;;;;;7.18;4.93;;;8.90;99.90;;;;;;2236881;26;20003;-69
2024/04/19 03:51:51;;;;;;;5.50;5.00;;;8.80;99.90;;;;;;2236706;26;20027;-71
2024/04/19 03:52:53;;;;;;;6.68;5.07;;;8.80;99.90;;;;;;2237131;26;20010;-70
2024/04/19 03:53:54;;;;;;;6.28;4.90;;;8.80;99.90;;;;;;2236248;26;20000;-71
2024/04/19 03:54:55;;;;;;;7.35;4.65;;;8.80;99.90;;;;;;2236774;26;20043;-70
2024/04/19 03:55:55;;;;;;;6.88;4.95;;;8.80;99.90;;;;;;2236008;26;20015;-70
2024/04/19 03:56:56;;;;;;;8.98;5.30;;;8.80;99.90;;;;;;2237222;26;20003;-70
2024/04/19 03:57:57;;;;;;;5.88;5.00;;;8.80;99.90;;;;;;2235701;26;20014;-70
2024/04/19 03:58:57;;;;;;;6.40;5.47;;;8.80;99.90;;;;;;2238401;26;20371;-70
2024/04/19 03:59:58;;;;;;;6.15;4.93;;;8.90;99.90;;;;;;2235697;26;20012;-70
2024/04/19 04:01:04;;;;;;;6.60;5.30;;;8.90;99.90;;;;;;2250431;26;20010;-71
2024/04/19 04:02:04;;;;;;;5.60;4.93;;;8.90;99.90;;;;;;2237581;26;20043;-71
2024/04/19 04:03:06;;;;;;;7.28;5.03;;;8.90;99.90;;;;;;2235529;26;20015;-70
2024/04/19 04:04:07;;;;;;;6.00;5.40;;;8.80;99.90;;;;;;2234501;26;20004;-70
2024/04/19 04:05:08;;;;;;;5.30;4.80;;;8.80;99.90;;;;;;2236055;26;20072;-70
2024/04/19 04:06:08;;;;;;;5.57;5.07;;;8.90;99.90;;;;;;2236091;26;20007;-71
2024/04/19 04:07:09;;;;;;;6.45;5.50;;;8.80;99.90;;;;;;2237530;26;20010;-70
2024/04/19 04:08:09;;;;;;;8.05;5.82;;;8.90;99.90;;;;;;2234147;26;20484;-70
2024/04/19 04:09:10;;;;;;;7.50;5.38;;;8.90;99.90;;;;;;2236555;26;20014;-70
2024/04/19 04:10:10;;;;;;;5.88;5.25;;;8.90;99.90;;;;;;2237423;26;20023;-70
2024/04/19 04:11:12;;;;;;;6.57;4.82;;;8.80;99.90;;;;;;2237401;26;20967;-71
2024/04/19 04:12:12;;;;;;;5.57;5.07;;;8.80;99.90;;;;;;2236120;26;20080;-70
2024/04/19 04:13:13;;;;;;;9.38;5.75;;;8.90;99.90;;;;;;2238344;26;20080;-70
2024/04/19 04:14:13;;;;;;;5.95;5.25;;;8.90;99.90;;;;;;2235565;26;21514;-70
2024/04/19 04:15:14;;;;;;;5.45;4.95;;;8.90;99.90;;;;;;2238147;26;20348;-71
2024/04/19 04:16:14;;;;;;;5.25;4.78;;;8.90;99.90;;;;;;2233917;26;20010;-71
2024/04/19 04:17:15;;;;;;;6.38;4.82;;;8.90;99.90;;;;;;2234165;26;20001;-70
2024/04/19 04:18:17;;;;;;;5.32;4.70;;;8.90;99.90;;;;;;2236028;26;19996;-70
2024/04/19 04:19:18;;;;;;;4.90;4.50;;;8.90;99.90;;;;;;2247006;26;19990;-70
2024/04/19 04:20:18;;;;;;;5.93;5.30;;;8.90;99.90;;;;;;2249332;26;19999;-70
2024/04/19 04:21:19;;;;;;;4.78;4.40;;;8.80;99.90;;;;;;2237246;26;20007;-71
2024/04/19 04:22:20;;;;;;;5.72;5.22;;;8.80;99.90;;;;;;2235616;26;20010;-70
2024/04/19 04:23:20;;;;;;;5.30;4.70;;;8.90;99.90;;;;;;2251380;26;19998;-70
2024/04/19 04:24:21;;;;;;;6.22;4.80;;;8.90;99.90;;;;;;2236538;26;20051;-70
2024/04/19 04:25:21;;;;;;;5.72;4.80;;;8.90;99.90;;;;;;2235883;26;19999;-70
2024/04/19 04:26:22;;;;;;;6.25;5.10;;;8.80;99.90;;;;;;2233601;26;20453;-71
2024/04/19 04:27:22;;;;;;;5.30;4.53;;;8.80;99.90;;;;;;2236549;26;19999;-70
2024/04/19 04:28:23;;;;;;;4.72;4.15;;;8.80;99.90;;;;;;2235945;26;20405;-70
2024/04/19 04:29:29;;;;;;;5.40;4.43;;;8.80;99.90;;;;;;2236252;26;20092;-71
2024/04/19 04:30:29;;;;;;;4.90;4.50;;;8.80;99.90;;;;;;2235451;26;20082;-70
2024/04/19 04:31:30;;;;;;;4.57;4.18;;;8.80;99.90;;;;;;2237674;26;20003;-70
2024/04/19 04:32:31;;;;;;;4.75;4.35;;;8.80;99.90;;;;;;2234870;26;19996;-71
2024/04/19 04:33:31;;;;;;;4.78;4.07;;;8.80;99.90;;;;;;2234761;26;20340;-70
2024/04/19 04:34:32;;;;;;;5.20;4.00;;;8.80;99.90;;;;;;2249395;26;19998;-70
2024/04/19 04:35:35;;;;;;;4.55;4.15;;;8.80;99.90;;;;;;2250497;26;19999;-70
2024/04/19 04:36:36;;;;;;;4.80;4.32;;;8.80;99.90;;;;;;2237772;26;20004;-70
2024/04/19 04:37:38;;;;;;;5.07;4.50;;;8.80;99.90;;;;;;2234047;26;19996;-69
2024/04/19 04:38:39;;;;;;;5.30;4.20;;;8.80;99.90;;;;;;2237046;26;20003;-70
2024/04/19 04:39:39;;;;;;;4.13;3.75;;;8.80;99.90;;;;;;2237748;26;20120;-70
2024/04/19 04:40:40;;;;;;;5.45;4.25;;;8.80;99.90;;;;;;2236679;26;20000;-70
2024/04/19 04:41:41;;;;;;;4.70;4.22;;;8.80;99.90;;;;;;2236599;26;19999;-70
2024/04/19 04:42:41;;;;;;;6.20;4.13;;;8.80;99.90;;;;;;2237095;26;19999;-70
2024/04/19 04:43:42;;;;;;;4.15;3.75;;;8.80;99.90;;;;;;2233000;26;20069;-70
2024/04/19 04:44:42;;;;;;;4.65;4.25;;;8.80;99.90;;;;;;2237899;26;19999;-70
2024/04/19 04:45:45;;;;;;;4.10;3.38;;;8.80;99.90;;;;;;2236434;26;20014;-70
2024/04/19 04:46:46;;;;;;;4.18;3.83;;;8.80;99.90;;;;;;2236711;26;21640;-70
2024/04/19 04:47:46;;;;;;;7.93;4.57;;;8.80;99.90;;;;;;2235709;26;20340;-69
2024/04/19 04:48:47;;;;;;;4.30;3.90;;;8.80;99.90;;;;;;2234667;26;20142;-69
2024/04/19 04:49:47;;;;;;;6.40;3.92;;;8.80;99.90;;;;;;2233677;26;19999;-70
2024/04/19 04:50:48;;;;;;;5.03;3.70;;;8.80;99.90;;;;;;2229702;26;20855;-70
2024/04/19 04:51:48;;;;;;;5.35;3.97;;;8.80;99.90;;;;;;2236877;26;20046;-70
2024/04/19 04:52:53;;;;;;;6.22;3.95;;;8.80;99.90;;;;;;2232408;26;20011;-70
2024/04/19 04:53:54;;;;;;;4.88;3.90;;;8.80;99.90;;;;;;2236232;26;20018;-70
2024/04/19 04:54:54;;;;;;;5.45;3.85;;;8.80;99.90;;;;;;2249355;26;20006;-71
2024/04/19 04:55:55;;;;;;;4.72;4.10;;;8.80;99.90;;;;;;2235962;26;20007;-71
2024/04/19 04:56:55;;;;;;;3.70;3.40;;;8.80;99.90;;;;;;2233899;26;20011;-71
2024/04/19 04:57:56;;;;;;;6.65;3.50;;;8.80;99.90;;;;;;2235365;26;20000;-70
2024/04/19 04:58:57;;;;;;;3.60;3.30;;;8.80;99.90;;;;;;2237363;26;20011;-70
2024/04/19 04:59:58;;;;;;;5.22;3.30;;;8.80;99.90;;;;;;2240824;26;20015;-70
2024/04/19 05:00:58;;;;;;;4.35;3.60;;;8.80;99.90;;;;;;2228188;26;20004;-70
2024/04/19 05:01:59;;;;;;;3.88;3.55;;;8.80;99.90;;;;;;2216658;26;20070;-70
2024/04/19 05:03:04;;;;;;;4.13;3.80;;;8.80;99.90;;;;;;2230629;26;21792;-70
2024/04/19 05:04:04;;;;;;;4.82;3.85;;;8.80;99.90;;;;;;2235397;26;20014;-70
2024/04/19 05:05:05;;;;;;;5.85;4.00;;;8.80;99.90;;;;;;2236369;26;20007;-70
2024/04/19 05:06:05;;;;;;;4.35;3.95;;;8.80;99.90;;;;;;2236139;26;20448;-70
2024/04/19 05:07:06;;;;;;;5.80;4.45;;;8.80;99.90;;;;;;2237752;26;20007;-70
2024/04/19 05:08:07;;;;;;;4.60;3.60;;;8.80;99.90;;;;;;2233856;26;20383;-70
2024/04/19 05:09:07;;;;;;;4.80;3.40;;;8.80;99.90;;;;;;2234580;26;20044;-70
2024/04/19 05:10:08;;;;;;;3.65;3.22;;;8.80;99.90;;;;;;2237298;26;19999;-70
2024/04/19 05:11:08;;;;;;;4.00;3.30;;;8.80;99.90;;;;;;2231703;26;19996;-70
2024/04/19 05:12:09;;;;;;;4.32;3.83;;;8.80;99.90;;;;;;2237478;26;20329;-71
2024/04/19 05:13:09;;;;;;;5.20;3.85;;;8.80;99.90;;;;;;2235250;26;20347;-70
2024/04/19 05:14:10;;;;;;;3.63;3.33;;;8.80;99.90;;;;;;2236007;26;19999;-70
2024/04/19 05:15:10;;;;;;;3.63;3.33;;;8.80;99.90;;;;;;2235965;26;20467;-70
2024/04/19 05:16:11;;;;;;;4.30;3.40;;;8.80;99.90;;;;;;2237777;26;19999;-70
2024/04/19 05:17:11;;;;;;;4.05;3.60;;;8.80;99.90;;;;;;2236218;26;20003;-70
2024/04/19 05:18:12;;;;;;;3.42;3.20;;;8.80;99.90;;;;;;2236602;26;20007;-70
2024/04/19 05:19:12;;;;;;;3.80;3.50;;;8.80;99.90;;;;;;2229935;26;20076;-70
2024/04/19 05:20:13;;;;;;;3.53;3.22;;;8.80;99.90;;;;;;2229100;26;19996;-70
2024/04/19 05:21:13;;;;;;;3.85;3.45;;;8.80;99.90;;;;;;2234551;26;20015;-71
2024/04/19 05:22:14;;;;;;;3.60;3.30;;;8.80;99.90;;;;;;2237283;26;19999;-70
2024/04/19 05:23:15;;;;;;;5.20;4.32;;;8.80;99.90;;;;;;2235982;26;20003;-70
2024/04/19 05:24:15;;;;;;;4.30;3.80;;;8.80;99.90;;;;;;2237167;26;20011;-70
2024/04/19 05:25:16;;;;;;;4.18;3.72;;;8.80;99.90;;;;;;2234904;26;20545;-70
2024/04/19 05:26:17;;;;;;;5.40;3.90;;;8.80;99.90;;;;;;2232621;26;20043;-70
2024/04/19 05:27:17;;;;;;;4.38;3.80;;;8.80;99.90;;;;;;2235266;26;20006;-70